createdAt,value
2022-10-09T00:01:13.119Z,101790.50
2022-10-09T00:03:42.565Z,101794.94
2022-10-09T00:06:12.681Z,101790.53
2022-10-09T00:08:41.143Z,101793.19
2022-10-09T00:11:10.416Z,101787.91
2022-10-09T00:13:39.838Z,101791.38
2022-10-09T00:16:10.487Z,101801.00
2022-10-09T00:18:38.964Z,101798.25
2022-10-09T00:21:07.627Z,101797.22
2022-10-09T00:23:35.373Z,101805.13
2022-10-09T00:26:03.489Z,101813.00
2022-10-09T00:28:36.454Z,101805.81
2022-10-09T00:31:08.329Z,101812.75
2022-10-09T00:33:37.248Z,101817.06
2022-10-09T00:36:05.916Z,101809.94
2022-10-09T00:38:34.164Z,101816.78
2022-10-09T00:41:03.153Z,101814.09
2022-10-09T00:43:44.033Z,101812.22
2022-10-09T00:46:28.490Z,101811.19
2022-10-09T00:49:06.728Z,101826.09
2022-10-09T00:51:35.757Z,101820.69
2022-10-09T00:54:06.149Z,101822.34
2022-10-09T00:56:35.253Z,101820.53
2022-10-09T00:59:04.251Z,101818.59
2022-10-09T01:01:33.509Z,101822.94
2022-10-09T01:04:01.392Z,101817.56
2022-10-09T01:06:42.703Z,101835.09
2022-10-09T01:09:15.689Z,101831.50
2022-10-09T01:11:50.184Z,101831.41
2022-10-09T01:14:25.458Z,101836.63
2022-10-09T01:17:03.779Z,101834.81
2022-10-09T01:19:49.655Z,101840.03
2022-10-09T01:22:34.006Z,101833.78
2022-10-09T01:25:07.637Z,101832.00
2022-10-09T01:27:38.089Z,101839.81
2022-10-09T01:30:09.464Z,101835.34
2022-10-09T01:32:40.329Z,101833.47
2022-10-09T01:35:10.194Z,101841.31
2022-10-09T01:37:39.541Z,101840.31
2022-10-09T01:40:10.013Z,101840.19
2022-10-09T01:42:39.535Z,101841.84
2022-10-09T01:45:08.360Z,101839.13
2022-10-09T01:47:36.296Z,101835.56
2022-10-09T01:50:13.100Z,101837.31
2022-10-09T01:52:48.835Z,101836.50
2022-10-09T01:55:30.005Z,101830.44
2022-10-09T01:58:04.920Z,101833.16
2022-10-09T02:00:38.212Z,101842.00
2022-10-09T02:03:09.545Z,101840.19
2022-10-09T02:05:39.699Z,101835.72
2022-10-09T02:08:08.892Z,101844.41
2022-10-09T02:10:39.445Z,101843.34
2022-10-09T02:13:09.582Z,101838.66
2022-10-09T02:15:43.824Z,101836.59
2022-10-09T02:18:15.911Z,101836.44
2022-10-09T02:20:49.347Z,101835.38
2022-10-09T02:23:19.180Z,101840.50
2022-10-09T02:25:47.405Z,101836.81
2022-10-09T02:28:16.535Z,101841.16
2022-10-09T02:30:52.316Z,101838.41
2022-10-09T02:33:27.060Z,101840.94
2022-10-09T02:35:54.958Z,101839.97
2022-10-09T02:38:22.724Z,101852.25
2022-10-09T02:40:52.641Z,101850.41
2022-10-09T02:43:21.787Z,101848.63
2022-10-09T02:45:49.548Z,101833.59
2022-10-09T02:48:17.375Z,101840.66
2022-10-09T02:50:45.130Z,101837.91
2022-10-09T02:53:12.849Z,101841.28
2022-10-09T02:55:40.652Z,101844.66
2022-10-09T02:58:08.424Z,101858.69
2022-10-09T03:00:39.090Z,101858.56
2022-10-09T03:03:07.099Z,101850.63
2022-10-09T03:05:35.143Z,101850.50
2022-10-09T03:08:03.163Z,101853.94
2022-10-09T03:10:31.058Z,101857.31
2022-10-09T03:12:58.796Z,101855.47
2022-10-09T03:15:26.579Z,101861.50
2022-10-09T03:17:55.853Z,101857.03
2022-10-09T03:20:23.679Z,101856.09
2022-10-09T03:22:51.616Z,101860.38
2022-10-09T03:25:20.349Z,101867.47
2022-10-09T03:27:48.114Z,101859.50
2022-10-09T03:30:16.501Z,101871.72
2022-10-09T03:32:44.262Z,101865.56
2022-10-09T03:35:13.478Z,101865.50
2022-10-09T03:37:41.314Z,101878.53
2022-10-09T03:40:10.051Z,101872.38
2022-10-09T03:42:37.800Z,101882.03
2022-10-09T03:45:06.230Z,101882.13
2022-10-09T03:47:33.982Z,101879.34
2022-10-09T03:50:01.748Z,101886.38
2022-10-09T03:52:30.856Z,101880.16
2022-10-09T03:54:59.068Z,101883.53
2022-10-09T03:57:26.877Z,101890.56
2022-10-09T03:59:54.802Z,101891.38
2022-10-09T04:02:22.601Z,101891.38
2022-10-09T04:04:50.379Z,101887.03
2022-10-09T04:07:18.203Z,101886.09
2022-10-09T04:09:47.442Z,101898.38
2022-10-09T04:12:15.194Z,101886.97
2022-10-09T04:14:43.062Z,101891.31
2022-10-09T04:17:11.114Z,101891.16
2022-10-09T04:19:38.853Z,101902.38
2022-10-09T04:22:07.136Z,101902.22
2022-10-09T04:24:34.917Z,101904.59
2022-10-09T04:27:04.109Z,101903.56
2022-10-09T04:29:32.070Z,101899.97
2022-10-09T04:31:59.950Z,101898.09
2022-10-09T04:34:27.785Z,101907.53
2022-10-09T04:36:55.551Z,101899.50
2022-10-09T04:39:23.390Z,101906.44
2022-10-09T04:41:51.173Z,101905.44
2022-10-09T04:44:20.402Z,101896.50
2022-10-09T04:46:51.012Z,101894.63
2022-10-09T04:49:19.179Z,101897.25
2022-10-09T04:51:46.966Z,101901.56
2022-10-09T04:54:14.725Z,101903.31
2022-10-09T04:56:42.474Z,101906.81
2022-10-09T04:59:10.288Z,101904.19
2022-10-09T05:01:39.475Z,101905.94
2022-10-09T05:04:07.269Z,101904.13
2022-10-09T05:06:35.045Z,101904.91
2022-10-09T05:09:02.947Z,101907.53
2022-10-09T05:11:30.695Z,101903.97
2022-10-09T05:13:59.522Z,101914.47
2022-10-09T05:17:00.927Z,101905.75
2022-10-09T05:19:25.111Z,101912.81
2022-10-09T05:21:52.872Z,101909.28
2022-10-09T05:24:20.828Z,101917.13
2022-10-09T05:26:48.563Z,101920.56
2022-10-09T05:29:16.356Z,101917.88
2022-10-09T05:31:49.060Z,101916.97
2022-10-09T05:34:17.321Z,101923.13
2022-10-09T05:36:46.406Z,101924.78
2022-10-09T05:39:14.125Z,101932.63
2022-10-09T05:41:41.990Z,101929.03
2022-10-09T05:44:09.959Z,101928.06
2022-10-09T05:46:37.676Z,101927.16
2022-10-09T05:49:06.747Z,101922.75
2022-10-09T05:51:36.510Z,101931.44
2022-10-09T05:54:07.113Z,101923.56
2022-10-09T05:56:36.680Z,101922.66
2022-10-09T05:59:06.676Z,101926.19
2022-10-09T06:01:36.967Z,101918.38
2022-10-09T06:04:06.687Z,101922.75
2022-10-09T06:06:37.666Z,101929.69
2022-10-09T06:09:07.660Z,101934.88
2022-10-09T06:11:38.019Z,101933.13
2022-10-09T06:14:07.389Z,101938.31
2022-10-09T06:16:37.525Z,101933.06
2022-10-09T06:19:07.071Z,101937.56
2022-10-09T06:21:35.481Z,101937.66
2022-10-09T06:24:06.823Z,101945.69
2022-10-09T06:26:34.944Z,101944.03
2022-10-09T06:29:03.889Z,101943.28
2022-10-09T06:31:33.983Z,101938.97
2022-10-09T06:34:03.232Z,101941.75
2022-10-09T06:36:33.229Z,101948.03
2022-10-09T06:39:02.330Z,101943.88
2022-10-09T06:41:31.938Z,101945.84
2022-10-09T06:44:01.368Z,101945.97
2022-10-09T06:46:30.915Z,101956.72
2022-10-09T06:49:00.452Z,101951.59
2022-10-09T06:51:29.274Z,101964.16
2022-10-09T06:53:58.663Z,101968.75
2022-10-09T06:56:28.568Z,101968.16
2022-10-09T06:59:00.402Z,101971.06
2022-10-09T07:01:30.847Z,101977.41
2022-10-09T07:04:00.932Z,101979.47
2022-10-09T07:06:30.435Z,101976.31
2022-10-09T07:09:00.146Z,101981.16
2022-10-09T07:11:30.561Z,101980.94
2022-10-09T07:14:01.120Z,101991.06
2022-10-09T07:16:30.383Z,101990.72
2022-10-09T07:19:01.126Z,101984.09
2022-10-09T07:21:28.948Z,101987.19
2022-10-09T07:23:56.868Z,101992.00
2022-10-09T07:26:27.246Z,101993.25
2022-10-09T07:28:55.495Z,101987.47
2022-10-09T07:31:25.028Z,101990.38
2022-10-09T07:33:54.950Z,101988.88
2022-10-09T07:36:22.898Z,101987.31
2022-10-09T07:38:52.414Z,101990.19
2022-10-09T07:41:20.448Z,101993.09
2022-10-09T07:43:48.292Z,101984.59
2022-10-09T07:46:18.325Z,101988.44
2022-10-09T07:48:47.786Z,101992.25
2022-10-09T07:51:17.890Z,101996.16
2022-10-09T07:53:46.001Z,101999.13
2022-10-09T07:56:18.275Z,102001.22
2022-10-09T07:58:50.156Z,102002.47
2022-10-09T08:01:20.395Z,101995.88
2022-10-09T08:03:50.743Z,101991.94
2022-10-09T08:06:19.781Z,101984.38
2022-10-09T08:08:51.188Z,101982.13
2022-10-09T08:11:20.208Z,101992.22
2022-10-09T08:13:49.394Z,101996.13
2022-10-09T08:16:17.574Z,101992.88
2022-10-09T08:18:45.327Z,101997.66
2022-10-09T08:21:16.410Z,102000.72
2022-10-09T08:23:44.282Z,101996.69
2022-10-09T08:26:16.425Z,101997.03
2022-10-09T08:28:44.641Z,102002.75
2022-10-09T08:31:13.121Z,102013.78
2022-10-09T08:33:41.419Z,102004.38
2022-10-09T08:36:11.112Z,102005.63
2022-10-09T08:38:48.372Z,102004.25
2022-10-09T08:41:24.052Z,102012.63
2022-10-09T08:43:58.277Z,102007.69
2022-10-09T08:46:30.292Z,102013.34
2022-10-09T08:48:59.752Z,101999.63
2022-10-09T08:51:30.600Z,102001.75
2022-10-09T08:54:06.340Z,101999.53
2022-10-09T08:56:35.373Z,102004.31
2022-10-09T08:59:03.359Z,102007.22
2022-10-09T09:01:36.982Z,101998.63
2022-10-09T09:04:28.408Z,102007.72
2022-10-09T09:07:04.927Z,102010.63
2022-10-09T09:09:45.346Z,102008.25
2022-10-09T09:12:19.808Z,102003.19
2022-10-09T09:15:18.883Z,102008.75
2022-10-09T09:17:53.854Z,102003.66
2022-10-09T09:20:26.918Z,102010.00
2022-10-09T09:22:56.525Z,102006.63
2022-10-09T09:25:29.231Z,101995.19
2022-10-09T09:28:01.409Z,101995.38
2022-10-09T09:30:32.249Z,101995.53
2022-10-09T09:33:05.778Z,101998.31
2022-10-09T09:35:38.632Z,101998.38
2022-10-09T09:38:06.518Z,101997.59
2022-10-09T09:40:37.785Z,101991.41
2022-10-09T09:43:15.877Z,101989.72
2022-10-09T09:45:44.840Z,101981.81
2022-10-09T09:48:17.555Z,101980.09
2022-10-09T09:50:52.960Z,101985.47
2022-10-09T09:53:34.999Z,101970.41
2022-10-09T09:56:04.700Z,101974.91
2022-10-09T09:58:36.327Z,101967.81
2022-10-09T10:01:06.498Z,101967.84
2022-10-09T10:03:36.621Z,101957.16
2022-10-09T10:06:04.832Z,101960.78
2022-10-09T10:08:34.031Z,101959.91
2022-10-09T10:11:06.670Z,101962.56
2022-10-09T10:13:38.031Z,101952.78
2022-10-09T10:16:08.239Z,101953.72
2022-10-09T10:18:39.778Z,101949.25
2022-10-09T10:21:12.421Z,101943.00
2022-10-09T10:23:43.978Z,101941.25
2022-10-09T10:26:22.649Z,101939.44
2022-10-09T10:28:54.641Z,101941.22
2022-10-09T10:31:36.836Z,101942.13
2022-10-09T10:34:09.943Z,101938.53
2022-10-09T10:36:37.741Z,101935.00
2022-10-09T10:39:11.917Z,101928.75
2022-10-09T10:41:46.372Z,101934.09
2022-10-09T10:44:22.863Z,101932.31
2022-10-09T10:46:55.897Z,101930.50
2022-10-09T10:49:24.280Z,101923.41
2022-10-09T10:52:09.043Z,101918.03
2022-10-09T10:54:40.824Z,101909.09
2022-10-09T10:57:15.900Z,101917.09
2022-10-09T10:59:54.963Z,101918.88
2022-10-09T11:02:53.525Z,101907.34
2022-10-09T11:05:28.675Z,101908.22
2022-10-09T11:08:08.972Z,101899.28
2022-10-09T11:10:46.774Z,101895.69
2022-10-09T11:13:23.938Z,101890.28
2022-10-09T11:16:02.325Z,101879.53
2022-10-09T11:18:48.609Z,101877.75
2022-10-09T11:21:31.152Z,101877.72
2022-10-09T11:24:22.212Z,101864.25
2022-10-09T11:27:03.209Z,101877.56
2022-10-09T11:29:38.211Z,101869.44
2022-10-09T11:32:14.330Z,101863.13
2022-10-09T11:34:47.187Z,101857.63
2022-10-09T11:37:19.766Z,101856.53
2022-10-09T11:39:47.720Z,101862.59
2022-10-09T11:42:21.423Z,101853.50
2022-10-09T11:45:02.880Z,101840.78
2022-10-09T11:47:35.706Z,101841.38
2022-10-09T11:50:27.650Z,101835.66
2022-10-09T11:53:03.841Z,101838.19
2022-10-09T11:55:33.301Z,101833.50
2022-10-09T11:58:23.850Z,101824.44
2022-10-09T12:00:55.033Z,101818.00
2022-10-09T12:03:33.387Z,101813.28
2022-10-09T12:06:08.110Z,101815.69
2022-10-09T12:08:36.470Z,101811.00
2022-10-09T12:11:12.446Z,101800.09
2022-10-09T12:13:51.154Z,101808.31
2022-10-09T12:16:47.863Z,101797.63
2022-10-09T12:19:19.913Z,101792.13
2022-10-09T12:21:52.943Z,101805.34
2022-10-09T12:24:23.739Z,101800.59
2022-10-09T12:26:54.178Z,101788.69
2022-10-09T12:29:28.313Z,101789.22
2022-10-09T12:32:04.729Z,101783.53
2022-10-09T12:34:35.644Z,101785.75
2022-10-09T12:37:14.681Z,101782.72
2022-10-09T12:39:43.059Z,101786.06
2022-10-09T12:42:18.827Z,101785.81
2022-10-09T12:44:48.247Z,101770.31
2022-10-09T12:47:22.657Z,101764.63
2022-10-09T12:50:01.909Z,101765.28
2022-10-09T12:52:31.456Z,101763.47
2022-10-09T12:54:59.541Z,101762.03
2022-10-09T12:57:28.105Z,101760.22
2022-10-09T12:59:56.722Z,101756.81
2022-10-09T13:02:25.985Z,101747.63
2022-10-09T13:05:00.754Z,101745.41
2022-10-09T13:07:32.361Z,101738.91
2022-10-09T13:10:06.705Z,101726.13
2022-10-09T13:12:35.399Z,101734.00
2022-10-09T13:15:05.534Z,101725.31
2022-10-09T13:17:37.843Z,101730.34
2022-10-09T13:20:25.400Z,101729.06
2022-10-09T13:22:58.370Z,101727.25
2022-10-09T13:25:28.230Z,101724.09
2022-10-09T13:27:56.004Z,101729.78
2022-10-09T13:30:23.895Z,101728.59
2022-10-09T13:32:53.000Z,101718.50
2022-10-09T13:35:20.800Z,101723.34
2022-10-09T13:37:48.800Z,101711.94
2022-10-09T13:40:20.770Z,101713.59
2022-10-09T13:42:53.728Z,101714.97
2022-10-09T13:45:21.887Z,101703.50
2022-10-09T13:47:49.916Z,101703.59
2022-10-09T13:50:19.820Z,101711.84
2022-10-09T13:52:48.162Z,101703.69
2022-10-09T13:55:16.237Z,101688.31
2022-10-09T13:57:44.385Z,101698.56
2022-10-09T14:00:13.750Z,101694.00
2022-10-09T14:02:41.684Z,101688.63
2022-10-09T14:05:09.785Z,101696.63
2022-10-09T14:07:38.874Z,101687.00
2022-10-09T14:10:07.670Z,101685.75
2022-10-09T14:12:35.470Z,101679.94
2022-10-09T14:15:03.705Z,101672.88
2022-10-09T14:17:31.643Z,101683.63
2022-10-09T14:20:00.478Z,101677.28
2022-10-09T14:22:28.355Z,101665.78
2022-10-09T14:24:57.554Z,101669.56
2022-10-09T14:27:25.356Z,101667.97
2022-10-09T14:29:56.591Z,101659.25
2022-10-09T14:32:25.284Z,101662.13
2022-10-09T14:34:53.101Z,101657.13
2022-10-09T14:37:39.902Z,101654.97
2022-10-09T14:40:11.083Z,101643.72
2022-10-09T14:42:39.395Z,101639.25
2022-10-09T14:45:08.388Z,101645.56
2022-10-09T14:47:36.314Z,101635.69
2022-10-09T14:50:05.349Z,101629.41
2022-10-09T14:52:33.118Z,101628.66
2022-10-09T14:55:01.012Z,101627.13
2022-10-09T14:57:32.996Z,101629.13
2022-10-09T15:00:03.074Z,101623.97
2022-10-09T15:02:31.002Z,101633.03
2022-10-09T15:04:58.817Z,101626.06
2022-10-09T15:07:28.109Z,101625.47
2022-10-09T15:09:56.920Z,101622.22
2022-10-09T15:12:25.509Z,101621.59
2022-10-09T15:14:54.857Z,101613.75
2022-10-09T15:17:22.610Z,101622.88
2022-10-09T15:19:50.511Z,101615.97
2022-10-09T15:22:18.257Z,101622.50
2022-10-09T15:24:47.650Z,101617.34
2022-10-09T15:27:15.377Z,101616.75
2022-10-09T15:29:43.157Z,101608.91
2022-10-09T15:32:12.438Z,101613.56
2022-10-09T15:34:41.333Z,101605.72
2022-10-09T15:37:09.246Z,101596.94
2022-10-09T15:39:37.037Z,101593.53
2022-10-09T15:42:05.148Z,101601.72
2022-10-09T15:44:32.942Z,101594.75
2022-10-09T15:47:00.845Z,101592.25
2022-10-09T15:49:29.937Z,101578.94
2022-10-09T15:51:57.858Z,101579.06
2022-10-09T15:54:25.604Z,101581.00
2022-10-09T15:56:54.428Z,101575.78
2022-10-09T15:59:22.248Z,101583.88
2022-10-09T16:01:50.622Z,101582.22
2022-10-09T16:04:18.433Z,101577.84
2022-10-09T16:06:48.147Z,101589.53
2022-10-09T16:09:15.892Z,101572.66
2022-10-09T16:11:44.490Z,101574.53
2022-10-09T16:14:12.247Z,101571.94
2022-10-09T16:16:40.029Z,101572.03
2022-10-09T16:19:07.798Z,101571.22
2022-10-09T16:21:35.624Z,101574.88
2022-10-09T16:24:04.922Z,101573.16
2022-10-09T16:26:32.779Z,101568.72
2022-10-09T16:29:01.694Z,101565.19
2022-10-09T16:31:31.306Z,101563.47
2022-10-09T16:33:59.864Z,101558.19
2022-10-09T16:36:28.474Z,101563.59
2022-10-09T16:38:56.957Z,101567.19
2022-10-09T16:41:27.130Z,101569.00
2022-10-09T16:43:56.591Z,101558.34
2022-10-09T16:46:31.634Z,101564.59
2022-10-09T16:49:00.940Z,101568.16
2022-10-09T16:51:31.904Z,101567.28
2022-10-09T16:54:01.521Z,101569.09
2022-10-09T16:56:33.904Z,101563.75
2022-10-09T16:59:03.832Z,101559.31
2022-10-09T17:01:32.408Z,101571.75
2022-10-09T17:04:01.153Z,101569.97
2022-10-09T17:06:29.073Z,101565.53
2022-10-09T17:08:58.545Z,101562.88
2022-10-09T17:11:32.428Z,101563.72
2022-10-09T17:14:01.666Z,101558.41
2022-10-09T17:16:31.891Z,101562.84
2022-10-09T17:18:59.728Z,101562.81
2022-10-09T17:21:32.873Z,101552.13
2022-10-09T17:24:04.188Z,101550.34
2022-10-09T17:26:31.950Z,101545.00
2022-10-09T17:29:02.621Z,101544.09
2022-10-09T17:31:30.859Z,101535.19
2022-10-09T17:34:01.502Z,101542.25
2022-10-09T17:36:31.240Z,101534.25
2022-10-09T17:38:59.106Z,101536.00
2022-10-09T17:41:28.386Z,101529.75
2022-10-09T17:43:57.602Z,101535.97
2022-10-09T17:46:29.017Z,101536.84
2022-10-09T17:48:58.358Z,101529.66
2022-10-09T17:51:27.994Z,101534.09
2022-10-09T17:56:32.560Z,101533.13
2022-10-09T17:59:01.028Z,101529.53
2022-10-09T18:01:30.899Z,101526.81
2022-10-09T18:03:58.719Z,101533.00
2022-10-09T18:06:26.796Z,101526.78
2022-10-09T18:08:57.228Z,101532.94
2022-10-09T18:11:26.887Z,101523.13
2022-10-09T18:13:54.722Z,101525.78
2022-10-09T18:16:30.204Z,101516.91
2022-10-09T18:19:04.353Z,101521.28
2022-10-09T18:21:32.149Z,101520.34
2022-10-09T18:23:59.868Z,101508.81
2022-10-09T18:26:27.701Z,101517.59
2022-10-09T18:28:55.566Z,101514.00
2022-10-09T18:31:23.962Z,101507.78
2022-10-09T18:33:52.622Z,101509.50
2022-10-09T18:36:24.395Z,101506.84
2022-10-09T18:38:54.199Z,101505.03
2022-10-09T18:41:24.420Z,101500.56
2022-10-09T18:43:54.853Z,101492.53
2022-10-09T18:46:25.961Z,101489.81
2022-10-09T18:48:55.756Z,101481.81
2022-10-09T18:51:28.022Z,101497.69
2022-10-09T18:54:00.927Z,101487.94
2022-10-09T18:56:31.819Z,101497.63
2022-10-09T18:59:00.712Z,101486.06
2022-10-09T19:01:28.776Z,101488.66
2022-10-09T19:03:56.581Z,101487.75
2022-10-09T19:06:25.749Z,101489.47
2022-10-09T19:08:57.724Z,101484.94
2022-10-09T19:11:25.775Z,101483.13
2022-10-09T19:13:54.564Z,101486.63
2022-10-09T19:16:24.275Z,101482.13
2022-10-09T19:18:53.203Z,101482.97
2022-10-09T19:21:21.064Z,101482.91
2022-10-09T19:23:51.255Z,101476.66
2022-10-09T19:26:19.447Z,101475.69
2022-10-09T19:28:47.808Z,101482.72
2022-10-09T19:31:16.104Z,101480.84
2022-10-09T19:33:44.430Z,101480.78
2022-10-09T19:36:13.687Z,101477.19
2022-10-09T19:38:42.285Z,101478.91
2022-10-09T19:41:14.123Z,101472.63
2022-10-09T19:43:42.445Z,101472.56
2022-10-09T19:46:12.031Z,101474.28
2022-10-09T19:48:39.821Z,101470.69
2022-10-09T19:51:09.328Z,101468.88
2022-10-09T19:53:37.140Z,101465.31
2022-10-09T19:56:12.089Z,101469.72
2022-10-09T19:58:41.131Z,101462.59
2022-10-09T20:01:10.196Z,101466.09
2022-10-09T20:03:38.322Z,101463.44
2022-10-09T20:06:08.537Z,101467.81
2022-10-09T20:08:36.691Z,101462.47
2022-10-09T20:11:06.098Z,101459.78
2022-10-09T20:13:37.866Z,101460.66
2022-10-09T20:16:08.012Z,101456.22
2022-10-09T20:18:36.141Z,101458.88
2022-10-09T20:21:03.873Z,101452.63
2022-10-09T20:23:31.728Z,101457.00
2022-10-09T20:26:00.820Z,101452.56
2022-10-09T20:28:33.374Z,101455.19
2022-10-09T20:31:06.362Z,101449.00
2022-10-09T20:33:34.765Z,101447.13
2022-10-09T20:36:02.626Z,101447.13
2022-10-09T20:38:30.598Z,101442.69
2022-10-09T20:41:03.802Z,101438.22
2022-10-09T20:43:31.643Z,101432.03
2022-10-09T20:45:59.458Z,101428.47
2022-10-09T20:48:28.836Z,101430.25
2022-10-09T20:50:56.560Z,101421.34
2022-10-09T20:53:24.308Z,101424.88
2022-10-09T20:55:52.046Z,101424.00
2022-10-09T20:58:19.817Z,101416.94
2022-10-09T21:00:47.625Z,101415.13
2022-10-09T21:03:15.527Z,101412.47
2022-10-09T21:05:44.895Z,101408.94
2022-10-09T21:08:12.632Z,101400.06
2022-10-09T21:10:44.057Z,101404.44
2022-10-09T21:13:11.878Z,101400.00
2022-10-09T21:15:43.748Z,101399.13
2022-10-09T21:18:12.123Z,101390.25
2022-10-09T21:20:40.734Z,101391.09
2022-10-09T21:23:10.527Z,101388.38
2022-10-09T21:25:38.606Z,101387.47
2022-10-09T21:28:06.880Z,101380.41
2022-10-09T21:30:41.602Z,101382.13
2022-10-09T21:33:10.165Z,101382.09
2022-10-09T21:35:40.438Z,101376.72
2022-10-09T21:38:12.684Z,101378.47
2022-10-09T21:40:40.692Z,101375.78
2022-10-09T21:43:10.486Z,101375.75
2022-10-09T21:45:38.818Z,101370.38
2022-10-09T21:48:07.559Z,101364.16
2022-10-09T21:50:36.370Z,101370.28
2022-10-09T21:53:05.107Z,101368.41
2022-10-09T21:55:34.289Z,101362.16
2022-10-09T21:58:02.046Z,101362.09
2022-10-09T22:00:29.836Z,101367.34
2022-10-09T22:02:57.606Z,101363.69
2022-10-09T22:05:25.490Z,101361.00
2022-10-09T22:07:53.259Z,101357.38
2022-10-09T22:10:21.188Z,101349.31
2022-10-09T22:12:50.560Z,101352.78
2022-10-09T22:15:18.615Z,101356.25
2022-10-09T22:17:46.393Z,101352.69
2022-10-09T22:20:14.285Z,101346.47
2022-10-09T22:22:42.216Z,101349.03
2022-10-09T22:25:10.325Z,101347.28
2022-10-09T22:27:38.072Z,101340.13
2022-10-09T22:30:09.005Z,101349.78
2022-10-09T22:32:36.746Z,101339.16
2022-10-09T22:35:05.234Z,101337.41
2022-10-09T22:37:33.091Z,101339.09
2022-10-09T22:40:00.904Z,101342.63
2022-10-09T22:42:28.752Z,101344.34
2022-10-09T22:44:56.611Z,101339.00
2022-10-09T22:47:25.705Z,101334.56
2022-10-09T22:49:53.531Z,101333.63
2022-10-09T22:52:21.258Z,101331.81
2022-10-09T22:54:48.997Z,101329.16
2022-10-09T22:57:17.097Z,101320.28
2022-10-09T22:59:45.208Z,101324.59
2022-10-09T23:02:13.068Z,101321.94
2022-10-09T23:04:42.214Z,101320.09
2022-10-09T23:07:11.091Z,101322.69
2022-10-09T23:09:38.959Z,101312.03
2022-10-09T23:12:06.791Z,101313.78
2022-10-09T23:14:34.555Z,101312.00
2022-10-09T23:17:02.332Z,101298.75
2022-10-09T23:19:30.134Z,101302.25
2022-10-09T23:21:59.338Z,101303.13
2022-10-09T23:24:27.198Z,101295.16
2022-10-09T23:26:55.060Z,101296.00
2022-10-09T23:29:22.858Z,101291.56
2022-10-09T23:31:53.167Z,101290.63
2022-10-09T23:34:20.958Z,101286.19
2022-10-09T23:36:48.886Z,101286.09
2022-10-09T23:39:18.054Z,101284.34
2022-10-09T23:41:45.840Z,101279.00
2022-10-09T23:44:13.621Z,101286.03
2022-10-09T23:46:41.926Z,101280.66
2022-10-09T23:49:11.181Z,101277.16
2022-10-09T23:51:39.006Z,101273.59
2022-10-09T23:54:07.157Z,101274.44
2022-10-09T23:56:37.888Z,101278.81
2022-10-09T23:59:07.089Z,101269.13
